Time;durP1;ratioP1;P1;durP2;ratioP2;P2;SDS_P1;SDS_P2;PMS_P1;PMS_P2;Temp;Humidity;BMP_temperature;BMP_pressure;BME280_temperature;BME280_humidity;BME280_pressure;Samples;Min_cycle;Max_cycle;Signal;HPM_P1;HPM_P2
2022/10/24 00:00:47;;;;;;;1.52;0.90;;;;;;;28.80;24.48;98186.66;5031883;28;20041;-79
2022/10/24 00:03:14;;;;;;;1.30;1.13;;;;;;;29.01;23.88;98185.81;5032226;28;20057;-79
2022/10/24 00:05:45;;;;;;;1.95;1.10;;;;;;;29.16;23.89;98179.09;5027624;28;20144;-79
2022/10/24 00:08:12;;;;;;;1.65;0.93;;;;;;;29.15;23.88;98171.09;5017040;28;20026;-79
2022/10/24 00:10:47;;;;;;;1.80;1.20;;;;;;;29.06;23.75;98173.88;5027362;28;20030;-79
2022/10/24 00:13:14;;;;;;;0.80;0.80;;;;;;;28.92;24.31;98178.06;5026609;28;20033;-79
2022/10/24 00:15:46;;;;;;;1.00;0.90;;;;;;;28.77;24.58;98168.59;5014000;28;20034;-79
2022/10/24 00:18:12;;;;;;;4.35;1.42;;;;;;;28.78;24.71;98170.16;5032192;28;20033;-79
2022/10/24 00:20:39;;;;;;;2.17;1.85;;;;;;;28.37;25.35;98167.69;5029344;28;20041;-79
2022/10/24 00:23:06;;;;;;;1.38;1.27;;;;;;;28.24;26.23;98158.53;5031867;28;20390;-79
2022/10/24 00:25:32;;;;;;;1.35;1.05;;;;;;;28.11;26.29;98157.78;5025917;28;20056;-79
2022/10/24 00:27:58;;;;;;;1.50;1.40;;;;;;;28.03;26.66;98154.44;5031192;28;20033;-79
2022/10/24 00:30:24;;;;;;;3.38;1.33;;;;;;;27.98;26.54;98150.13;5030785;28;20033;-79
2022/10/24 00:32:52;;;;;;;1.95;1.50;;;;;;;27.97;26.82;98156.25;5013496;28;20033;-78
2022/10/24 00:35:18;;;;;;;1.42;1.27;;;;;;;28.12;26.53;98167.84;5027346;28;20049;-79
2022/10/24 00:37:44;;;;;;;1.92;1.83;;;;;;;28.11;27.15;98169.88;5024427;28;20034;-79
2022/10/24 00:40:15;;;;;;;1.95;1.60;;;;;;;28.33;26.54;98167.06;5026574;28;20049;-79
2022/10/24 00:42:42;;;;;;;1.95;1.33;;;;;;;28.56;26.14;98158.88;5025956;28;20041;-79
2022/10/24 00:45:36;;;;;;;1.83;1.50;;;;;;;28.53;26.40;98145.66;5033066;28;20036;-79
2022/10/24 00:48:19;;;;;;;1.90;1.27;;;;;;;28.89;25.33;98150.75;5028854;28;20053;-79
2022/10/24 00:50:47;;;;;;;2.50;1.60;;;;;;;28.99;25.00;98151.53;5030988;28;20495;-79
2022/10/24 00:53:15;;;;;;;2.25;1.48;;;;;;;28.67;25.81;98153.63;5032265;28;20120;-79
2022/10/24 00:55:42;;;;;;;1.35;1.20;;;;;;;28.61;26.15;98160.34;5032580;28;20025;-79
2022/10/24 00:58:09;;;;;;;1.65;1.38;;;;;;;28.69;25.70;98148.28;5032585;28;20029;-79
2022/10/24 01:00:36;;;;;;;1.58;1.48;;;;;;;28.85;25.64;98141.59;5032284;28;20037;-79
2022/10/24 01:03:02;;;;;;;2.17;1.45;;;;;;;29.05;25.36;98153.31;5017749;28;20380;-78
2022/10/24 01:05:36;;;;;;;1.55;1.33;;;;;;;29.09;24.80;98156.78;5022114;28;20033;-79
2022/10/24 01:08:26;;;;;;;1.33;1.15;;;;;;;29.18;25.49;98147.53;5030253;28;20040;-79
2022/10/24 01:11:06;;;;;;;2.03;1.42;;;;;;;29.10;24.61;98163.22;5031083;28;20541;-79
2022/10/24 01:13:53;;;;;;;1.63;1.50;;;;;;;29.11;24.95;98162.75;5015073;28;20046;-79
2022/10/24 01:16:46;;;;;;;2.67;1.20;;;;;;;29.18;24.87;98158.84;5025100;28;20038;-79
2022/10/24 01:20:06;;;;;;;1.35;1.23;;;;;;;28.98;25.17;98164.13;5022866;28;20033;-79
2022/10/24 01:22:37;;;;;;;1.30;1.00;;;;;;;28.99;24.58;98143.06;4993251;28;20578;-79
2022/10/24 01:25:33;;;;;;;1.50;1.40;;;;;;;28.62;24.49;98133.66;5032854;28;20045;-79
2022/10/24 01:28:16;;;;;;;0.88;0.82;;;;;;;28.58;24.94;98138.63;5029558;28;20060;-79
2022/10/24 01:30:56;;;;;;;1.65;0.90;;;;;;;28.82;24.55;98131.25;5018828;28;20030;-79
2022/10/24 01:33:31;;;;;;;0.93;0.90;;;;;;;28.73;25.03;98131.19;5029846;28;20040;-79
2022/10/24 01:36:08;;;;;;;2.95;0.88;;;;;;;28.85;24.40;98127.47;5036667;28;20272;-79
2022/10/24 01:38:44;;;;;;;1.05;0.95;;;;;;;28.88;25.00;98123.72;5029742;28;20104;-79
2022/10/24 01:41:19;;;;;;;1.00;0.90;;;;;;;28.56;25.25;98124.19;5034529;28;20088;-78
2022/10/24 01:43:55;;;;;;;0.63;0.63;;;;;;;28.50;25.21;98111.91;5028724;28;20025;-78
2022/10/24 01:46:27;;;;;;;1.30;1.20;;;;;;;28.26;24.92;98120.13;5034200;28;20056;-78
2022/10/24 01:49:01;;;;;;;0.85;0.75;;;;;;;28.25;25.30;98127.00;5032552;28;20027;-79
2022/10/24 01:51:30;;;;;;;1.25;0.80;;;;;;;28.43;25.66;98109.34;5021882;28;20034;-79
2022/10/24 01:53:57;;;;;;;0.63;0.60;;;;;;;28.79;24.98;98117.25;5034118;28;20491;-79
2022/10/24 01:56:25;;;;;;;0.70;0.70;;;;;;;28.70;24.81;98112.34;5033955;28;20088;-79
2022/10/24 01:58:51;;;;;;;1.17;0.70;;;;;;;28.68;24.24;98120.50;5032503;28;20029;-78
2022/10/24 02:01:22;;;;;;;1.15;0.80;;;;;;;28.71;25.27;98114.69;5035484;28;20033;-79
2022/10/24 02:03:51;;;;;;;;;;;;;;;29.03;24.89;98110.59;5033673;28;20104;-79
2022/10/24 02:06:26;;;;;;;0.70;0.70;;;;;;;29.47;23.77;98105.50;5034206;28;19917;-79
2022/10/24 02:08:57;;;;;;;0.88;0.60;;;;;;;29.71;23.34;98108.50;5026386;28;20028;-79
2022/10/24 02:11:24;;;;;;;0.93;0.75;;;;;;;29.83;22.77;98107.56;5032916;28;20030;-79
2022/10/24 02:13:54;;;;;;;0.80;0.70;;;;;;;29.71;22.38;98117.75;5027712;28;20405;-78
2022/10/24 02:16:20;;;;;;;0.80;0.77;;;;;;;29.61;22.64;98115.41;5023000;28;20057;-79
2022/10/24 02:18:53;;;;;;;1.02;0.93;;;;;;;29.51;23.20;98119.47;5030963;28;20041;-79
2022/10/24 02:21:25;;;;;;;1.20;1.00;;;;;;;29.54;23.34;98118.53;5027347;28;20069;-79
2022/10/24 02:24:09;;;;;;;1.17;0.98;;;;;;;29.67;23.42;98124.81;5028120;28;20029;-79
2022/10/24 02:26:35;;;;;;;1.30;0.80;;;;;;;29.72;22.32;98113.69;5023256;28;20141;-79
2022/10/24 02:29:07;;;;;;;0.73;0.73;;;;;;;29.55;22.10;98108.78;5029230;28;20040;-79
2022/10/24 02:31:38;;;;;;;1.17;0.82;;;;;;;29.09;22.86;98116.38;5030859;28;20033;-79
2022/10/24 02:34:05;;;;;;;;;;;;;;;29.13;22.43;98109.34;5034469;28;20041;-79
2022/10/24 02:36:33;;;;;;;1.27;0.80;;;;;;;28.77;23.18;98109.25;5030676;28;19917;-79
2022/10/24 02:39:01;;;;;;;0.65;0.65;;;;;;;28.55;23.57;98108.47;5016419;28;20127;-79
2022/10/24 02:41:34;;;;;;;0.70;0.60;;;;;;;28.57;23.41;98108.78;5025941;28;20041;-79
2022/10/24 02:44:03;;;;;;;1.10;0.80;;;;;;;28.82;23.07;98110.66;5027502;28;20491;-78
2022/10/24 02:46:30;;;;;;;0.80;0.80;;;;;;;28.89;23.11;98116.03;5022394;28;20037;-78
2022/10/24 02:49:01;;;;;;;1.88;0.80;;;;;;;28.98;23.36;98110.41;5024738;28;20403;-78
2022/10/24 02:51:32;;;;;;;1.02;0.98;;;;;;;29.18;22.64;98116.44;5030670;28;20033;-79
2022/10/24 02:54:00;;;;;;;1.20;0.85;;;;;;;29.19;22.83;98120.84;5029701;28;20073;-78
2022/10/24 02:56:26;;;;;;;0.95;0.90;;;;;;;29.08;22.75;98115.59;5029468;28;20044;-78
2022/10/24 02:58:53;;;;;;;0.80;0.70;;;;;;;29.06;22.47;98109.63;5024893;28;20145;-78
2022/10/24 03:01:19;;;;;;;1.10;1.00;;;;;;;29.19;22.36;98113.16;5030996;28;20079;-78
2022/10/24 03:03:45;;;;;;;1.17;0.60;;;;;;;29.32;22.14;98113.81;5018655;28;20030;-78
2022/10/24 03:06:12;;;;;;;1.30;0.90;;;;;;;29.17;22.30;98107.13;5023021;28;20556;-78
2022/10/24 03:08:38;;;;;;;0.63;0.60;;;;;;;28.98;22.48;98102.72;5028808;28;20025;-79
2022/10/24 03:11:04;;;;;;;3.15;0.85;;;;;;;28.89;22.44;98101.91;5030307;28;20120;-78
2022/10/24 03:13:30;;;;;;;1.33;1.13;;;;;;;28.94;22.28;98098.47;5030374;28;20033;-78
2022/10/24 03:15:57;;;;;;;0.93;0.70;;;;;;;28.84;22.32;98097.66;5027111;28;20090;-78
2022/10/24 03:18:23;;;;;;;0.82;0.80;;;;;;;28.88;22.88;98103.94;5023406;28;20160;-78
2022/10/24 03:20:49;;;;;;;0.85;0.70;;;;;;;29.00;22.65;98100.19;5031385;28;20041;-78
2022/10/24 03:23:17;;;;;;;1.15;1.05;;;;;;;29.08;22.60;98109.94;5023516;28;20037;-78
2022/10/24 03:25:44;;;;;;;0.85;0.85;;;;;;;29.15;22.28;98108.88;5030584;28;20035;-78
2022/10/24 03:28:10;;;;;;;0.90;0.80;;;;;;;29.21;22.34;98107.81;5028092;28;20911;-78
2022/10/24 03:30:36;;;;;;;1.15;1.05;;;;;;;28.66;22.21;98106.03;5025645;28;20116;-78
2022/10/24 03:33:02;;;;;;;0.80;0.80;;;;;;;28.31;22.61;98102.53;5030138;28;20036;-78
2022/10/24 03:35:29;;;;;;;1.48;1.27;;;;;;;28.57;22.81;98098.28;5017553;28;20057;-79
2022/10/24 03:37:55;;;;;;;0.68;0.68;;;;;;;28.83;21.95;98104.53;5033408;28;20095;-78
2022/10/24 03:40:21;;;;;;;1.05;0.60;;;;;;;28.29;21.95;98084.47;5031799;28;20498;-78
2022/10/24 03:42:47;;;;;;;1.10;1.00;;;;;;;27.95;22.35;98091.00;5030723;28;20164;-78
2022/10/24 03:45:14;;;;;;;0.90;0.90;;;;;;;27.96;22.84;98087.72;5026834;28;20112;-78
2022/10/24 03:47:40;;;;;;;3.25;1.27;;;;;;;27.01;24.14;98079.84;5029367;28;20032;-78
2022/10/24 03:50:07;;;;;;;2.50;1.05;;;;;;;27.20;24.29;98078.00;5023358;28;20548;-79
2022/10/24 03:52:33;;;;;;;1.40;1.17;;;;;;;27.42;24.32;98075.25;5029938;28;20495;-79
2022/10/24 03:54:59;;;;;;;1.52;1.05;;;;;;;27.82;24.00;98090.31;5030101;28;20037;-78
2022/10/24 03:57:25;;;;;;;1.80;1.35;;;;;;;28.14;23.72;98092.75;5026041;28;20037;-78
2022/10/24 03:59:51;;;;;;;2.47;1.23;;;;;;;28.45;23.49;98090.69;5024932;28;20068;-78
2022/10/24 04:02:18;;;;;;;2.13;1.02;;;;;;;28.66;23.07;98095.53;5029086;28;20570;-78
2022/10/24 04:04:44;;;;;;;0.85;0.85;;;;;;;28.94;23.07;98106.94;5028412;28;20053;-78
2022/10/24 04:07:10;;;;;;;1.00;0.90;;;;;;;29.09;22.93;98103.03;5020198;28;20033;-78
2022/10/24 04:09:36;;;;;;;1.85;1.30;;;;;;;28.87;22.51;98098.75;5033163;28;20461;-78
2022/10/24 04:12:02;;;;;;;0.98;0.98;;;;;;;28.39;23.07;98089.72;5028442;28;20033;-78
2022/10/24 04:14:29;;;;;;;0.95;0.80;;;;;;;28.23;23.45;98092.00;5030026;28;20030;-79
2022/10/24 04:16:55;;;;;;;1.83;0.80;;;;;;;28.42;23.49;98088.81;5022638;28;20041;-79
2022/10/24 04:19:21;;;;;;;2.65;1.67;;;;;;;28.72;23.31;98101.38;5026526;28;20032;-79
2022/10/24 04:21:47;;;;;;;2.20;1.63;;;;;;;29.10;22.92;98092.53;5027410;28;20049;-78
2022/10/24 04:24:13;;;;;;;1.63;1.45;;;;;;;29.21;22.88;98088.03;5022652;28;20040;-79
2022/10/24 04:26:40;;;;;;;1.60;1.00;;;;;;;29.39;22.30;98085.22;5014203;28;20117;-78
2022/10/24 04:29:06;;;;;;;1.20;1.05;;;;;;;29.47;22.40;98091.34;5033174;28;20048;-78
2022/10/24 04:31:32;;;;;;;1.00;0.90;;;;;;;29.13;22.07;98083.88;5029811;28;20029;-79
2022/10/24 04:33:58;;;;;;;1.40;1.02;;;;;;;28.89;22.80;98084.94;5023503;28;20025;-77
2022/10/24 04:36:24;;;;;;;1.42;1.20;;;;;;;29.06;22.71;98098.31;5027891;28;20048;-79
2022/10/24 04:38:51;;;;;;;1.02;0.98;;;;;;;29.23;22.72;98093.19;5027575;28;20506;-79
2022/10/24 04:41:17;;;;;;;1.25;0.98;;;;;;;29.42;22.60;98103.28;5023367;28;20531;-78
2022/10/24 04:43:43;;;;;;;1.55;1.00;;;;;;;29.47;22.56;98101.88;5023575;28;20037;-79
2022/10/24 04:46:09;;;;;;;1.88;1.30;;;;;;;29.64;22.49;98106.75;5026396;28;20022;-79
2022/10/24 04:48:35;;;;;;;1.00;0.80;;;;;;;29.62;22.47;98119.78;5032949;28;20033;-78
2022/10/24 04:51:01;;;;;;;1.80;1.10;;;;;;;29.11;22.59;98116.72;5031844;28;20029;-79
2022/10/24 04:53:28;;;;;;;1.23;0.85;;;;;;;28.59;23.20;98117.66;5032814;28;20037;-78
2022/10/24 04:55:54;;;;;;;1.52;0.82;;;;;;;28.82;23.42;98117.13;5032655;28;20655;-79
2022/10/24 04:58:20;;;;;;;3.90;1.35;;;;;;;28.63;23.42;98110.59;5032011;28;20124;-78
2022/10/24 05:00:49;;;;;;;2.58;1.10;;;;;;;28.75;23.34;98126.63;5033209;28;20118;-79
2022/10/24 05:03:17;;;;;;;2.30;1.13;;;;;;;29.07;23.22;98127.38;5033381;28;20048;-79
2022/10/24 05:05:44;;;;;;;1.80;1.20;;;;;;;29.40;23.03;98119.94;5032933;28;20035;-79
2022/10/24 05:08:10;;;;;;;1.33;1.23;;;;;;;29.37;22.42;98110.34;5031899;28;20494;-79
2022/10/24 05:10:36;;;;;;;2.10;1.15;;;;;;;29.27;22.73;98111.59;5032782;28;20033;-79
2022/10/24 05:13:03;;;;;;;3.00;0.80;;;;;;;29.48;22.47;98097.81;5032919;28;20025;-79
2022/10/24 05:15:29;;;;;;;2.65;1.33;;;;;;;29.62;22.06;98105.66;5025874;28;20510;-79
2022/10/24 05:17:57;;;;;;;1.42;1.33;;;;;;;28.87;22.44;98093.88;5032800;28;20025;-79
2022/10/24 05:20:23;;;;;;;1.35;1.25;;;;;;;28.28;22.99;98091.41;5032750;28;20470;-79
2022/10/24 05:22:50;;;;;;;1.23;1.00;;;;;;;28.14;23.52;98097.59;5032973;28;20102;-79
2022/10/24 05:25:16;;;;;;;1.02;0.90;;;;;;;28.55;23.08;98092.31;5032573;28;20053;-79
2022/10/24 05:27:42;;;;;;;2.90;0.98;;;;;;;28.51;23.08;98094.50;5032411;28;20053;-79
2022/10/24 05:30:09;;;;;;;1.20;0.80;;;;;;;28.39;23.55;98100.25;5032322;28;20029;-79
2022/10/24 05:32:36;;;;;;;1.63;0.98;;;;;;;28.47;23.44;98091.00;5026472;28;20080;-78
2022/10/24 05:35:03;;;;;;;1.15;0.93;;;;;;;28.47;23.46;98093.06;5032866;28;20057;-78
2022/10/24 05:37:29;;;;;;;1.85;1.10;;;;;;;28.75;23.44;98094.78;5032627;28;20032;-78
2022/10/24 05:39:55;;;;;;;1.17;1.00;;;;;;;29.17;23.02;98095.06;5031176;28;20033;-79
2022/10/24 05:42:21;;;;;;;2.47;1.00;;;;;;;29.47;22.76;98099.03;5032564;28;20108;-78
2022/10/24 05:44:47;;;;;;;4.50;1.55;;;;;;;29.52;23.02;98107.72;5032603;28;20033;-79
2022/10/24 05:47:14;;;;;;;2.13;0.95;;;;;;;29.46;23.14;98105.94;5032333;28;20041;-78
2022/10/24 05:49:40;;;;;;;1.20;1.05;;;;;;;29.57;22.94;98104.22;5032121;28;20057;-78
2022/10/24 05:52:06;;;;;;;1.20;1.10;;;;;;;29.77;22.64;98096.09;5032562;28;20032;-79
2022/10/24 05:54:32;;;;;;;1.30;1.20;;;;;;;29.81;22.32;98110.06;5032266;28;20471;-78
2022/10/24 05:56:59;;;;;;;1.90;1.00;;;;;;;29.76;22.30;98100.19;5032374;28;20481;-78
2022/10/24 05:59:25;;;;;;;3.78;0.90;;;;;;;29.54;22.37;98098.75;5032463;28;20469;-78
2022/10/24 06:01:51;;;;;;;1.70;1.38;;;;;;;29.17;22.83;98106.38;5032483;28;20105;-78
2022/10/24 06:04:17;;;;;;;1.50;1.30;;;;;;;29.22;22.91;98098.06;5031963;28;20379;-79
2022/10/24 06:06:44;;;;;;;1.20;1.10;;;;;;;29.39;22.70;98096.53;5027757;28;20022;-79
2022/10/24 06:09:11;;;;;;;1.25;0.90;;;;;;;29.05;23.36;98098.78;5035835;28;20159;-78
2022/10/24 06:11:37;;;;;;;1.50;1.40;;;;;;;29.20;23.39;98105.44;5036241;28;20030;-79
2022/10/24 06:14:05;;;;;;;1.52;1.25;;;;;;;29.35;23.14;98104.38;5035976;28;20044;-79
2022/10/24 06:16:32;;;;;;;2.30;1.10;;;;;;;29.32;23.48;98110.97;5036353;28;20036;-79
2022/10/24 06:18:59;;;;;;;1.23;1.13;;;;;;;29.52;23.29;98116.19;5036104;28;20364;-79
2022/10/24 06:21:25;;;;;;;1.17;1.08;;;;;;;29.09;23.54;98107.91;5034402;28;20060;-78
2022/10/24 06:23:52;;;;;;;5.72;1.25;;;;;;;28.38;24.51;98110.75;5030689;28;20395;-78
2022/10/24 06:26:18;;;;;;;3.72;1.42;;;;;;;28.13;25.20;98113.75;5035797;28;20040;-79
2022/10/24 06:28:45;;;;;;;1.65;0.88;;;;;;;28.72;24.87;98121.16;5035783;28;20050;-78
2022/10/24 06:31:12;;;;;;;1.38;1.20;;;;;;;29.34;24.23;98119.78;5035573;28;20041;-78
2022/10/24 06:33:38;;;;;;;1.85;1.17;;;;;;;29.78;23.78;98128.78;5034883;28;20038;-78
2022/10/24 06:36:08;;;;;;;1.35;1.15;;;;;;;30.05;23.32;98125.97;5035774;28;20025;-78
2022/10/24 06:38:34;;;;;;;2.28;1.20;;;;;;;29.22;24.29;98132.00;5033222;28;20518;-78
2022/10/24 06:41:12;;;;;;;0.90;0.90;;;;;;;28.42;25.51;98130.38;5032204;28;20037;-78
2022/10/24 06:43:41;;;;;;;1.25;1.05;;;;;;;28.47;25.68;98136.22;5035518;28;20033;-78
2022/10/24 06:46:09;;;;;;;2.42;1.35;;;;;;;28.03;26.36;98143.16;5034305;28;20033;-78
2022/10/24 06:48:35;;;;;;;1.95;1.23;;;;;;;28.72;25.90;98140.94;5035415;28;20123;-78
2022/10/24 06:51:02;;;;;;;2.50;1.30;;;;;;;29.24;25.03;98129.50;5035353;28;20117;-78
2022/10/24 06:53:29;;;;;;;1.17;1.10;;;;;;;29.71;24.74;98143.22;5035062;28;20077;-78
2022/10/24 06:55:58;;;;;;;1.20;1.10;;;;;;;30.12;24.36;98141.03;5029894;28;20034;-78
2022/10/24 06:58:24;;;;;;;2.55;1.10;;;;;;;30.61;24.34;98142.38;5034539;28;20068;-78
2022/10/24 07:00:50;;;;;;;0.93;0.90;;;;;;;31.05;23.98;98147.59;5035103;28;20487;-78
2022/10/24 07:03:16;;;;;;;1.00;0.90;;;;;;;31.42;23.67;98151.78;5035067;28;20040;-78
2022/10/24 07:05:42;;;;;;;1.30;1.20;;;;;;;31.65;23.28;98145.34;5035203;28;20056;-78
2022/10/24 07:08:09;;;;;;;1.25;1.10;;;;;;;31.84;23.84;98146.78;5033008;28;20061;-78
2022/10/24 07:10:35;;;;;;;1.38;1.27;;;;;;;32.01;23.87;98139.41;5034681;28;20029;-78
2022/10/24 07:13:02;;;;;;;4.13;1.10;;;;;;;32.25;24.12;98144.25;5028588;28;20034;-79
2022/10/24 07:15:28;;;;;;;1.20;1.10;;;;;;;32.33;23.28;98140.50;5034428;28;20041;-79
2022/10/24 07:17:54;;;;;;;2.28;1.05;;;;;;;32.40;24.27;98142.97;5049976;28;20490;-79
2022/10/24 07:20:20;;;;;;;0.90;0.90;;;;;;;32.12;24.20;98144.50;5034540;28;20050;-79
2022/10/24 07:22:46;;;;;;;1.55;1.35;;;;;;;30.99;26.19;98146.69;5034477;28;20033;-79
2022/10/24 07:25:12;;;;;;;1.40;1.13;;;;;;;30.69;26.67;98152.09;5034657;28;20426;-79
2022/10/24 07:27:39;;;;;;;1.27;1.13;;;;;;;31.00;26.47;98151.88;5034630;28;20033;-79
2022/10/24 07:30:06;;;;;;;1.45;1.00;;;;;;;30.94;26.42;98150.16;5028629;28;20037;-79
2022/10/24 07:32:33;;;;;;;1.35;1.13;;;;;;;30.84;26.49;98163.56;5014440;28;20026;-79
2022/10/24 07:34:59;;;;;;;1.30;1.20;;;;;;;30.81;26.64;98163.75;5014762;28;20037;-79
2022/10/24 07:37:25;;;;;;;2.22;1.50;;;;;;;31.02;26.13;98162.72;5014545;28;20037;-78
2022/10/24 07:39:51;;;;;;;1.30;1.20;;;;;;;31.37;26.42;98149.59;5022316;28;20075;-78
2022/10/24 07:42:18;;;;;;;1.33;1.23;;;;;;;31.89;25.63;98151.78;5034536;28;20061;-79
2022/10/24 07:44:44;;;;;;;1.45;1.17;;;;;;;31.98;25.06;98146.06;5034462;28;20037;-78
2022/10/24 07:47:11;;;;;;;1.20;1.10;;;;;;;31.67;26.15;98133.53;5028043;28;20033;-79
2022/10/24 07:49:37;;;;;;;1.60;1.50;;;;;;;31.19;26.66;98133.47;5034237;28;20502;-79
2022/10/24 07:52:05;;;;;;;2.15;1.52;;;;;;;30.86;27.41;98144.00;5033987;28;20372;-79
2022/10/24 07:54:31;;;;;;;1.73;1.23;;;;;;;30.42;27.59;98134.41;5033860;28;20060;-79
2022/10/24 07:56:57;;;;;;;3.00;1.25;;;;;;;30.64;27.01;98127.25;5034274;28;20424;-79
2022/10/24 07:59:23;;;;;;;1.67;1.20;;;;;;;31.22;27.40;98109.03;5034093;28;20045;-79
2022/10/24 08:01:49;;;;;;;2.83;1.40;;;;;;;32.05;25.79;98117.28;5034179;28;20108;-79
2022/10/24 08:04:15;;;;;;;1.55;1.35;;;;;;;32.27;25.16;98113.28;5032942;28;20033;-79
2022/10/24 08:06:43;;;;;;;2.15;1.33;;;;;;;32.64;24.77;98108.78;5033690;28;20095;-79
2022/10/24 08:09:09;;;;;;;2.47;1.55;;;;;;;32.79;24.52;98112.38;5033962;28;20440;-79
2022/10/24 08:11:36;;;;;;;1.10;1.05;;;;;;;32.49;25.05;98113.63;5034186;28;20107;-79
2022/10/24 08:14:02;;;;;;;1.63;1.23;;;;;;;32.76;25.13;98116.22;5018573;28;20095;-79
2022/10/24 08:16:28;;;;;;;1.67;1.20;;;;;;;32.80;25.07;98119.63;5014152;28;20487;-79
2022/10/24 08:18:56;;;;;;;1.35;1.10;;;;;;;32.11;26.33;98117.38;5013714;28;20088;-79
2022/10/24 08:21:23;;;;;;;4.28;1.10;;;;;;;31.45;27.53;98127.34;5022424;28;20087;-79
2022/10/24 08:23:52;;;;;;;2.25;1.38;;;;;;;32.11;26.18;98122.28;5033719;28;20430;-79
2022/10/24 08:26:21;;;;;;;1.20;1.10;;;;;;;32.44;25.86;98122.88;5033406;28;20029;-79
2022/10/24 08:28:48;;;;;;;1.02;0.93;;;;;;;32.59;25.70;98127.31;5013101;28;20053;-79
2022/10/24 08:31:18;;;;;;;1.88;1.23;;;;;;;32.84;25.91;98123.03;5014048;28;20036;-79
2022/10/24 08:33:45;;;;;;;2.65;1.13;;;;;;;33.26;25.78;98114.91;5013046;28;20064;-79
2022/10/24 08:36:28;;;;;;;1.33;1.00;;;;;;;33.52;25.57;98097.91;5013627;28;20034;-79
2022/10/24 08:38:55;;;;;;;1.13;1.02;;;;;;;33.48;25.13;98100.19;5007510;28;20376;-79
2022/10/24 08:41:36;;;;;;;0.80;0.80;;;;;;;33.18;26.55;98099.56;5015245;28;20032;-79
2022/10/24 08:44:13;;;;;;;1.45;0.98;;;;;;;33.54;25.51;98101.06;5013859;28;20033;-79
2022/10/24 08:46:55;;;;;;;4.30;1.38;;;;;;;33.40;25.61;98102.69;5013560;28;20030;-79
2022/10/24 08:49:57;;;;;;;0.95;0.70;;;;;;;33.42;25.77;98100.13;5013667;28;20104;-79
2022/10/24 08:52:52;;;;;;;0.90;0.80;;;;;;;33.27;25.53;98101.47;5002029;28;20038;-79
2022/10/24 08:55:41;;;;;;;1.25;0.98;;;;;;;33.64;26.00;98096.03;5006959;28;20070;-79
2022/10/24 08:58:17;;;;;;;1.15;0.93;;;;;;;33.88;25.05;98096.56;5013291;28;20116;-79
2022/10/24 09:00:49;;;;;;;0.80;0.80;;;;;;;34.21;24.92;98082.69;5013401;28;20038;-79
2022/10/24 09:03:40;;;;;;;1.27;0.82;;;;;;;34.31;24.69;98069.06;5013186;28;20037;-79
2022/10/24 09:06:12;;;;;;;1.48;0.85;;;;;;;34.40;25.28;98069.63;5013309;28;20030;-79
2022/10/24 09:08:53;;;;;;;1.58;0.80;;;;;;;33.85;24.56;98069.06;5011973;28;20037;-79
2022/10/24 09:11:39;;;;;;;1.73;0.75;;;;;;;34.36;25.23;98074.00;5012736;28;20034;-79
2022/10/24 09:14:14;;;;;;;0.80;0.80;;;;;;;34.67;24.29;98088.31;5006069;28;20038;-80
2022/10/24 09:16:42;;;;;;;0.68;0.68;;;;;;;34.67;24.86;98082.59;5013217;28;20030;-79
2022/10/24 09:19:26;;;;;;;0.55;0.50;;;;;;;34.81;24.28;98081.66;5011996;28;20064;-79
2022/10/24 09:21:54;;;;;;;0.80;0.60;;;;;;;33.98;26.36;98073.09;5013022;28;20046;-80
2022/10/24 09:24:44;;;;;;;0.65;0.50;;;;;;;34.49;25.07;98075.19;5013450;28;20464;-80
2022/10/24 09:27:35;;;;;;;1.13;0.60;;;;;;;34.57;25.63;98076.31;4999352;28;20030;-81
2022/10/24 09:30:01;;;;;;;0.70;0.57;;;;;;;34.87;23.78;98067.44;5004211;28;20088;-82
2022/10/24 09:32:31;;;;;;;4.03;0.85;;;;;;;34.69;25.23;98051.50;5000857;28;20054;-81
2022/10/24 09:35:05;;;;;;;1.17;0.65;;;;;;;35.11;24.12;98060.09;5012682;28;20471;-82
2022/10/24 09:37:42;;;;;;;0.70;0.65;;;;;;;35.22;24.74;98056.50;5007019;28;20034;-80
2022/10/24 09:40:23;;;;;;;0.68;0.60;;;;;;;35.62;24.40;98061.13;5009567;28;20041;-80
2022/10/24 09:43:21;;;;;;;1.35;0.63;;;;;;;35.89;24.67;98049.00;5010742;28;20066;-80
2022/10/24 09:45:49;;;;;;;0.80;0.70;;;;;;;35.33;23.57;98042.31;5011953;28;20022;-80
2022/10/24 09:48:18;;;;;;;0.73;0.60;;;;;;;35.29;24.75;98056.03;5010475;28;20034;-80
2022/10/24 09:50:46;;;;;;;1.25;0.80;;;;;;;35.01;24.53;98058.69;5003124;28;20530;-80
2022/10/24 09:53:33;;;;;;;1.65;0.70;;;;;;;34.71;25.44;98077.44;5010966;28;20117;-80
2022/10/24 09:56:13;;;;;;;0.60;0.60;;;;;;;34.91;24.41;98088.75;5001760;28;20034;-80
2022/10/24 09:58:40;;;;;;;0.63;0.63;;;;;;;34.77;25.64;98086.84;5007437;28;20450;-80
2022/10/24 10:01:18;;;;;;;1.42;0.70;;;;;;;35.12;24.58;98069.44;5009035;28;20034;-80
2022/10/24 10:04:03;;;;;;;0.60;0.60;;;;;;;35.24;23.70;98071.84;5001555;28;20037;-80
2022/10/24 10:06:32;;;;;;;0.68;0.50;;;;;;;35.48;23.37;98070.63;5007007;28;20034;-80
2022/10/24 10:08:59;;;;;;;1.02;0.60;;;;;;;35.76;23.86;98066.63;5003200;28;20041;-80
2022/10/24 10:11:31;;;;;;;1.05;0.65;;;;;;;35.85;23.26;98072.09;5012420;28;20387;-80
2022/10/24 10:14:00;;;;;;;1.95;0.93;;;;;;;36.04;23.24;98073.22;5009124;28;20044;-80
2022/10/24 10:16:40;;;;;;;0.55;0.47;;;;;;;35.85;23.72;98066.38;5011480;28;20034;-80
2022/10/24 10:19:19;;;;;;;2.28;0.60;;;;;;;36.21;23.14;98061.03;5009004;28;20036;-80
2022/10/24 10:22:05;;;;;;;0.57;0.57;;;;;;;36.31;22.80;98057.41;5011591;28;20042;-80
2022/10/24 10:24:39;;;;;;;0.93;0.60;;;;;;;36.45;23.00;98055.63;4996628;28;20030;-81
2022/10/24 10:27:32;;;;;;;0.88;0.40;;;;;;;36.60;23.35;98044.69;4999136;28;20026;-80
2022/10/24 10:30:16;;;;;;;0.93;0.60;;;;;;;36.57;23.56;98052.22;4995913;28;20072;-80
2022/10/24 10:32:54;;;;;;;0.50;0.50;;;;;;;36.73;22.96;98070.69;5002758;28;20038;-80
2022/10/24 10:35:48;;;;;;;1.50;0.65;;;;;;;36.81;22.38;98068.09;5006520;28;20515;-80
2022/10/24 10:38:43;;;;;;;1.40;0.52;;;;;;;36.63;23.46;98067.31;5004429;28;20030;-80
2022/10/24 10:41:27;;;;;;;0.60;0.50;;;;;;;36.58;23.44;98064.44;4996134;28;20186;-80
2022/10/24 10:44:19;;;;;;;0.88;0.50;;;;;;;36.49;23.29;98061.84;5025250;28;20061;-80
2022/10/24 10:47:15;;;;;;;0.75;0.50;;;;;;;36.58;22.05;98065.25;5011379;28;20034;-80
2022/10/24 10:49:42;;;;;;;0.88;0.40;;;;;;;36.28;21.78;98069.09;4996210;28;20126;-79
2022/10/24 10:52:20;;;;;;;1.13;0.52;;;;;;;36.43;23.29;98061.81;5003524;28;20387;-79
2022/10/24 10:55:08;;;;;;;1.10;0.82;;;;;;;36.21;22.57;98064.69;5009888;28;20060;-79
2022/10/24 10:58:06;;;;;;;1.02;0.50;;;;;;;36.34;23.59;98067.03;4994607;28;20088;-79
2022/10/24 11:01:24;;;;;;;0.98;0.63;;;;;;;36.66;23.93;98057.69;5011686;28;20034;-79
2022/10/24 11:04:25;;;;;;;0.90;0.50;;;;;;;36.88;23.78;98058.94;4984872;28;20038;-79
2022/10/24 11:07:05;;;;;;;2.50;0.50;;;;;;;36.79;23.26;98070.69;4992260;28;20038;-79
2022/10/24 11:09:44;;;;;;;1.48;0.75;;;;;;;36.72;24.22;98069.91;5004650;28;20048;-80
2022/10/24 11:12:29;;;;;;;1.00;0.50;;;;;;;36.47;24.75;98070.19;5012360;28;20186;-80
2022/10/24 11:15:21;;;;;;;0.65;0.50;;;;;;;35.97;25.39;98065.16;5004188;28;20121;-81
2022/10/24 11:17:58;;;;;;;1.13;0.40;;;;;;;36.28;24.28;98051.94;5011636;28;20034;-80
2022/10/24 11:20:27;;;;;;;0.70;0.30;;;;;;;36.41;23.92;98055.09;5002299;28;20053;-80
2022/10/24 11:23:29;;;;;;;1.45;0.60;;;;;;;36.39;24.01;98049.88;5015099;28;20037;-79
2022/10/24 11:26:07;;;;;;;0.80;0.70;;;;;;;36.20;24.03;98056.63;5006066;28;20037;-79
2022/10/24 11:28:48;;;;;;;1.17;0.60;;;;;;;36.70;23.51;98057.44;5003704;28;20415;-80
2022/10/24 11:31:29;;;;;;;0.95;0.88;;;;;;;36.35;23.64;98068.59;5004208;28;20061;-80
2022/10/24 11:34:22;;;;;;;1.00;0.95;;;;;;;35.77;23.72;98067.41;5008163;28;20042;-80
2022/10/24 11:37:16;;;;;;;2.30;0.77;;;;;;;35.24;24.80;98074.69;5014418;28;20152;-80
2022/10/24 11:39:53;;;;;;;1.52;1.05;;;;;;;34.03;28.50;98077.31;5001976;28;20033;-80
2022/10/24 11:42:28;;;;;;;1.00;0.90;;;;;;;33.47;28.36;98077.94;4997232;28;20039;-80
2022/10/24 11:45:08;;;;;;;1.58;1.20;;;;;;;33.30;27.92;98083.41;5009396;28;20038;-80
2022/10/24 11:47:44;;;;;;;1.63;1.20;;;;;;;33.48;28.05;98085.19;5001763;28;20040;-81
2022/10/24 11:50:32;;;;;;;3.70;1.60;;;;;;;33.74;25.49;98081.16;5014830;28;20038;-81
2022/10/24 11:53:17;;;;;;;1.55;1.45;;;;;;;34.16;24.91;98085.50;5014399;28;20178;-79
2022/10/24 11:55:49;;;;;;;3.22;1.63;;;;;;;34.61;24.62;98084.63;5014512;28;20034;-79